createdAt,value
2018-01-02T00:02:05.765Z,6.00
2018-01-02T00:04:33.354Z,5.90
2018-01-02T00:07:00.951Z,5.90
2018-01-02T00:09:28.498Z,6.00
2018-01-02T00:11:56.170Z,6.00
2018-01-02T00:14:23.726Z,6.00
2018-01-02T00:16:51.330Z,6.00
2018-01-02T00:19:18.990Z,6.00
2018-01-02T00:21:46.722Z,6.00
2018-01-02T00:24:14.406Z,6.00
2018-01-02T00:26:42.052Z,6.00
2018-01-02T00:29:09.602Z,5.90
2018-01-02T00:31:37.289Z,5.90
2018-01-02T00:34:04.858Z,6.00
2018-01-02T00:36:32.482Z,5.90
2018-01-02T00:39:00.033Z,6.00
2018-01-02T00:41:27.596Z,6.10
2018-01-02T00:43:55.182Z,6.00
2018-01-02T00:46:22.743Z,6.10
2018-01-02T00:48:50.364Z,6.10
2018-01-02T00:51:17.926Z,6.10
2018-01-02T00:53:45.526Z,6.10
2018-01-02T00:56:13.098Z,6.10
2018-01-02T00:58:40.696Z,6.10
2018-01-02T01:01:08.460Z,6.10
2018-01-02T01:03:36.038Z,6.20
2018-01-02T01:06:03.670Z,6.20
2018-01-02T01:08:31.238Z,6.20
2018-01-02T01:10:58.922Z,6.20
2018-01-02T01:13:26.505Z,6.10
2018-01-02T01:15:54.079Z,6.10
2018-01-02T01:18:22.403Z,6.30
2018-01-02T01:20:49.997Z,6.30
2018-01-02T01:23:17.650Z,6.30
2018-01-02T01:25:45.226Z,6.30
2018-01-02T01:28:13.558Z,6.30
2018-01-02T01:30:41.138Z,6.30
2018-01-02T01:33:08.706Z,6.30
2018-01-02T01:35:36.318Z,6.30
2018-01-02T01:38:03.883Z,6.20
2018-01-02T01:40:31.518Z,6.20
2018-01-02T01:42:59.892Z,6.10
2018-01-02T01:45:27.500Z,6.10
2018-01-02T01:47:55.053Z,6.10
2018-01-02T01:50:22.719Z,6.00
2018-01-02T01:52:50.326Z,6.00
2018-01-02T01:55:18.656Z,6.10
2018-01-02T01:57:46.273Z,6.10
2018-01-02T02:00:13.895Z,6.10
2018-01-02T02:02:41.508Z,6.10
2018-01-02T02:05:09.050Z,6.00
2018-01-02T02:07:36.605Z,6.00
2018-01-02T02:10:05.110Z,6.10
2018-01-02T02:12:32.664Z,6.10
2018-01-02T02:15:00.322Z,6.00
2018-01-02T02:17:27.986Z,6.00
2018-01-02T02:19:55.542Z,5.90
2018-01-02T02:22:23.103Z,5.90
2018-01-02T02:24:50.712Z,5.90
2018-01-02T02:27:18.265Z,5.90
2018-01-02T02:29:45.886Z,6.00
2018-01-02T02:32:13.488Z,6.00
2018-01-02T02:34:41.035Z,5.90
2018-01-02T02:37:08.607Z,6.10
2018-01-02T02:39:36.385Z,6.10
2018-01-02T02:42:04.721Z,6.10
2018-01-02T02:44:32.297Z,6.10
2018-01-02T02:46:59.894Z,6.00
2018-01-02T02:49:28.208Z,5.90
2018-01-02T02:51:55.790Z,5.90
2018-01-02T02:54:23.342Z,5.90
2018-01-02T02:56:50.910Z,5.90
2018-01-02T02:59:18.505Z,5.90
2018-01-02T03:01:46.071Z,6.00
2018-01-02T03:04:13.842Z,5.90
2018-01-02T03:06:41.394Z,5.90
2018-01-02T03:09:09.015Z,6.00
2018-01-02T03:11:36.567Z,6.00
2018-01-02T03:14:04.259Z,6.10
2018-01-02T03:16:32.618Z,6.20
2018-01-02T03:19:00.946Z,6.20
2018-01-02T03:21:28.502Z,6.10
2018-01-02T03:23:56.085Z,6.20
2018-01-02T03:26:23.638Z,6.00
2018-01-02T03:28:51.305Z,6.10
2018-01-02T03:31:18.930Z,6.00
2018-01-02T03:33:46.478Z,6.10
2018-01-02T03:36:14.071Z,6.00
2018-01-02T03:38:41.634Z,6.00
2018-01-02T03:41:09.266Z,5.90
2018-01-02T03:43:36.818Z,5.80
2018-01-02T03:46:04.447Z,5.80
2018-01-02T03:48:31.995Z,5.80
2018-01-02T03:50:59.546Z,5.70
2018-01-02T03:53:27.138Z,5.70
2018-01-02T03:55:55.450Z,5.60
2018-01-02T03:58:23.046Z,5.60
2018-01-02T04:00:50.619Z,5.50
2018-01-02T04:03:18.946Z,5.50
2018-01-02T04:05:46.690Z,5.40
2018-01-02T04:08:14.269Z,5.50
2018-01-02T04:10:41.853Z,5.50
2018-01-02T04:13:09.496Z,5.40
2018-01-02T04:15:37.078Z,5.30
2018-01-02T04:18:04.634Z,5.30
2018-01-02T04:20:32.186Z,5.20
2018-01-02T04:22:59.870Z,5.10
2018-01-02T04:25:27.589Z,5.00
2018-01-02T04:27:55.142Z,4.90
2018-01-02T04:30:22.801Z,4.80
2018-01-02T04:32:50.354Z,4.80
2018-01-02T04:35:17.944Z,4.80
2018-01-02T04:37:45.498Z,4.80
2018-01-02T04:40:13.095Z,4.70
2018-01-02T04:42:41.424Z,4.70
2018-01-02T04:45:09.034Z,4.70
2018-01-02T04:47:36.646Z,4.70
2018-01-02T04:50:04.226Z,4.60
2018-01-02T04:52:31.847Z,4.50
2018-01-02T04:54:59.398Z,4.40
2018-01-02T04:57:26.951Z,4.50
2018-01-02T04:59:54.545Z,4.40
2018-01-02T05:02:22.171Z,4.50
2018-01-02T05:04:49.723Z,4.50
2018-01-02T05:07:17.387Z,4.50
2018-01-02T05:09:44.990Z,4.40
2018-01-02T05:12:12.573Z,4.30
2018-01-02T05:14:40.890Z,4.30
2018-01-02T05:17:08.494Z,4.30
2018-01-02T05:19:36.820Z,4.20
2018-01-02T05:22:04.476Z,4.20
2018-01-02T05:24:32.045Z,4.20
2018-01-02T05:26:59.752Z,4.10
2018-01-02T05:29:28.090Z,4.20
2018-01-02T05:31:55.645Z,4.20
2018-01-02T05:34:23.238Z,4.10
2018-01-02T05:36:50.798Z,4.10
2018-01-02T05:39:18.354Z,4.00
2018-01-02T05:41:45.940Z,4.00
2018-01-02T05:44:13.494Z,4.00
2018-01-02T05:46:41.866Z,3.90
2018-01-02T05:49:10.186Z,3.90
2018-01-02T05:51:37.903Z,3.90
2018-01-02T05:54:06.225Z,3.90
2018-01-02T05:56:33.874Z,3.80
2018-01-02T05:59:01.434Z,3.90
2018-01-02T06:01:28.998Z,4.00
2018-01-02T06:03:56.602Z,4.10
2018-01-02T06:06:24.160Z,4.10
2018-01-02T06:08:51.734Z,4.10
2018-01-02T06:11:20.145Z,3.90
2018-01-02T06:13:47.731Z,3.90
2018-01-02T06:16:15.322Z,3.80
2018-01-02T06:18:43.655Z,4.00
2018-01-02T06:21:11.245Z,4.00
2018-01-02T06:23:38.807Z,4.10
2018-01-02T06:26:06.378Z,4.20
2018-01-02T06:28:34.754Z,4.30
2018-01-02T06:31:03.083Z,4.30
2018-01-02T06:33:30.779Z,4.30
2018-01-02T06:35:59.837Z,4.50
2018-01-02T06:38:27.402Z,4.50
2018-01-02T06:40:54.981Z,4.50
2018-01-02T06:43:22.542Z,4.50
2018-01-02T06:45:50.132Z,4.40
2018-01-02T06:48:18.463Z,4.40
2018-01-02T06:50:46.096Z,4.40
2018-01-02T06:53:13.745Z,4.50
2018-01-02T06:55:41.406Z,4.50
2018-01-02T06:58:09.010Z,4.60
2018-01-02T07:00:36.634Z,4.50
2018-01-02T07:03:04.212Z,4.40
2018-01-02T07:05:31.819Z,4.50
2018-01-02T07:08:00.147Z,4.30
2018-01-02T07:10:27.762Z,4.30
2018-01-02T07:12:55.332Z,4.20
2018-01-02T07:15:22.892Z,4.20
2018-01-02T07:17:50.669Z,4.30
2018-01-02T07:20:18.243Z,4.30
2018-01-02T07:22:45.822Z,4.40
2018-01-02T07:25:13.382Z,4.40
2018-01-02T07:27:41.145Z,4.30
2018-01-02T07:30:08.706Z,4.30
2018-01-02T07:32:36.266Z,4.20
2018-01-02T07:35:03.857Z,4.20
2018-01-02T07:37:31.420Z,4.30
2018-01-02T07:39:59.110Z,4.30
2018-01-02T07:42:26.698Z,4.40
2018-01-02T07:44:54.262Z,4.30
2018-01-02T07:47:21.877Z,4.40
2018-01-02T07:49:49.438Z,4.30
2018-01-02T07:52:17.046Z,4.30
2018-01-02T07:54:44.634Z,4.40
2018-01-02T07:57:12.188Z,4.50
2018-01-02T07:59:39.858Z,4.60
2018-01-02T08:02:07.534Z,4.60
2018-01-02T08:04:35.250Z,4.60
2018-01-02T08:07:02.806Z,4.60
2018-01-02T08:09:30.398Z,4.60
2018-01-02T08:11:57.956Z,4.60
2018-01-02T08:14:25.630Z,4.60
2018-01-02T08:16:53.238Z,4.70
2018-01-02T08:19:20.851Z,4.80
2018-01-02T08:21:48.466Z,4.80
2018-01-02T08:24:16.850Z,4.90
2018-01-02T08:26:45.179Z,5.00
2018-01-02T08:29:12.768Z,4.90
2018-01-02T08:31:40.322Z,4.90
2018-01-02T08:34:07.906Z,4.90
2018-01-02T08:36:36.263Z,5.20
2018-01-02T08:39:03.821Z,5.20
2018-01-02T08:41:31.444Z,5.30
2018-01-02T08:43:59.095Z,5.30
2018-01-02T08:46:26.701Z,5.30
2018-01-02T08:48:54.261Z,5.30
2018-01-02T08:51:21.838Z,5.20
2018-01-02T08:53:50.306Z,5.40
2018-01-02T08:56:18.038Z,5.40
2018-01-02T08:58:45.614Z,5.50
2018-01-02T09:01:13.178Z,5.50
2018-01-02T09:03:42.317Z,5.60
2018-01-02T09:06:09.882Z,5.60
2018-01-02T09:08:37.441Z,5.60
2018-01-02T09:11:05.102Z,5.70
2018-01-02T09:13:38.455Z,5.70
2018-01-02T09:16:06.033Z,5.80
2018-01-02T09:18:34.433Z,5.90
2018-01-02T09:21:01.983Z,5.90
2018-01-02T09:23:29.651Z,5.90
2018-01-02T09:25:57.877Z,5.90
2018-01-02T09:28:25.646Z,6.00
2018-01-02T09:30:54.735Z,6.00
2018-01-02T09:33:23.879Z,6.10
2018-01-02T09:35:51.427Z,6.10
2018-01-02T09:38:19.025Z,6.20
2018-01-02T09:40:46.634Z,6.20
2018-01-02T09:43:14.193Z,6.10
2018-01-02T09:45:41.754Z,6.20
2018-01-02T09:48:09.345Z,6.20
2018-01-02T09:50:36.992Z,6.20
2018-01-02T09:53:04.589Z,6.10
2018-01-02T09:55:32.178Z,6.10
2018-01-02T09:58:00.489Z,6.20
2018-01-02T10:00:28.068Z,6.20
2018-01-02T10:02:55.611Z,6.30
2018-01-02T10:05:23.250Z,6.30
2018-01-02T10:07:50.825Z,6.30
2018-01-02T10:10:18.404Z,6.30
2018-01-02T10:12:46.018Z,6.40
2018-01-02T10:15:13.573Z,6.50
2018-01-02T10:17:42.046Z,6.50
2018-01-02T10:20:10.363Z,6.50
2018-01-02T10:22:37.926Z,6.40
2018-01-02T10:25:05.515Z,6.60
2018-01-02T10:27:33.074Z,6.70
2018-01-02T10:30:00.890Z,6.70
2018-01-02T10:32:28.439Z,6.80
2018-01-02T10:34:56.065Z,6.70
2018-01-02T10:37:23.689Z,6.80
2018-01-02T10:39:51.302Z,6.80
2018-01-02T10:42:19.670Z,6.80
2018-01-02T10:44:47.998Z,6.90
2018-01-02T10:47:15.611Z,6.90
2018-01-02T10:49:43.934Z,7.30
2018-01-02T10:52:11.507Z,7.30
2018-01-02T10:54:39.091Z,7.30
2018-01-02T10:57:06.665Z,7.20
2018-01-02T10:59:35.063Z,7.20
2018-01-02T11:02:02.616Z,7.20
2018-01-02T11:04:30.197Z,7.10
2018-01-02T11:06:59.438Z,7.00
2018-01-02T11:09:26.998Z,7.00
2018-01-02T11:11:58.510Z,7.10
2018-01-02T11:14:31.627Z,7.10
2018-01-02T11:16:59.251Z,7.00
2018-01-02T11:19:26.828Z,7.00
2018-01-02T11:21:54.386Z,7.00
2018-01-02T11:24:21.986Z,7.00
2018-01-02T11:26:50.314Z,7.50
2018-01-02T11:29:17.943Z,7.50
2018-01-02T11:31:45.511Z,8.00
2018-01-02T11:34:13.174Z,8.40
2018-01-02T11:36:40.827Z,8.80
2018-01-02T11:39:08.422Z,8.50
2018-01-02T11:41:35.965Z,9.30
2018-01-02T11:44:03.569Z,9.30
2018-01-02T11:46:31.154Z,8.30
2018-01-02T11:48:58.722Z,8.30
2018-01-02T11:51:26.387Z,7.50
2018-01-02T11:53:53.961Z,7.60
2018-01-02T11:56:21.581Z,7.50
2018-01-02T11:58:49.899Z,7.20
2018-01-02T12:01:17.562Z,7.20
2018-01-02T12:03:45.142Z,7.30
2018-01-02T12:06:12.759Z,7.20
2018-01-02T12:08:40.357Z,7.50
2018-01-02T12:11:07.938Z,8.00
2018-01-02T12:13:36.258Z,9.30
2018-01-02T12:16:03.841Z,9.30
2018-01-02T12:18:31.474Z,9.00
2018-01-02T12:20:59.166Z,8.90
2018-01-02T12:23:26.795Z,9.40
2018-01-02T12:25:54.399Z,9.30
2018-01-02T12:28:22.113Z,9.50
2018-01-02T12:30:49.775Z,9.30
2018-01-02T12:33:17.355Z,9.10
2018-01-02T12:35:44.915Z,9.80
2018-01-02T12:38:12.560Z,8.60
2018-01-02T12:40:40.127Z,8.90
2018-01-02T12:43:07.691Z,8.70
2018-01-02T12:45:35.436Z,7.90
2018-01-02T12:48:02.991Z,8.40
2018-01-02T12:50:30.652Z,8.80
2018-01-02T12:52:58.203Z,8.70
2018-01-02T12:55:25.823Z,8.30
2018-01-02T12:57:53.391Z,7.80
2018-01-02T13:00:21.901Z,7.40
2018-01-02T13:02:49.503Z,7.30
2018-01-02T13:05:17.056Z,7.40
2018-01-02T13:07:44.646Z,6.90
2018-01-02T13:10:13.062Z,6.80
2018-01-02T13:12:40.645Z,6.80
2018-01-02T13:15:08.202Z,6.80
2018-01-02T13:17:35.838Z,6.70
2018-01-02T13:20:03.454Z,6.70
2018-01-02T13:22:31.003Z,6.80
2018-01-02T13:25:00.100Z,6.80
2018-01-02T13:27:27.650Z,6.80
2018-01-02T13:29:55.311Z,6.80
2018-01-02T13:32:22.871Z,6.80
2018-01-02T13:34:50.453Z,6.80
2018-01-02T13:37:18.864Z,6.70
2018-01-02T13:39:46.442Z,6.70
2018-01-02T13:42:14.094Z,6.60
2018-01-02T13:44:41.678Z,6.60
2018-01-02T13:47:09.282Z,6.30
2018-01-02T13:49:36.964Z,6.40
2018-01-02T13:52:04.526Z,6.50
2018-01-02T13:54:32.122Z,6.60
2018-01-02T13:56:59.681Z,6.60
2018-01-02T13:59:27.278Z,6.40
2018-01-02T14:01:54.826Z,6.30
2018-01-02T14:04:23.143Z,6.60
2018-01-02T14:06:50.739Z,6.60
2018-01-02T14:09:18.357Z,6.60
2018-01-02T14:11:45.973Z,6.40
2018-01-02T14:14:14.298Z,6.60
2018-01-02T14:16:41.945Z,6.60
2018-01-02T14:19:09.495Z,6.70
2018-01-02T14:21:37.047Z,6.60
2018-01-02T14:24:04.634Z,6.60
2018-01-02T14:26:32.189Z,6.70
2018-01-02T14:28:59.780Z,6.80
2018-01-02T14:31:27.422Z,6.80
2018-01-02T14:33:54.993Z,7.10
2018-01-02T14:36:22.562Z,7.20
2018-01-02T14:38:50.146Z,7.10
2018-01-02T14:41:18.534Z,7.00
2018-01-02T14:43:46.914Z,6.90
2018-01-02T14:46:14.477Z,6.90
2018-01-02T14:48:42.054Z,7.00
2018-01-02T14:51:09.633Z,7.00
2018-01-02T14:53:37.186Z,7.00
2018-01-02T14:56:04.778Z,6.80
2018-01-02T14:58:33.134Z,6.90
2018-01-02T15:01:00.768Z,6.90
2018-01-02T15:03:28.490Z,6.70
2018-01-02T15:05:56.827Z,6.70
2018-01-02T15:08:24.458Z,6.70
2018-01-02T15:10:52.119Z,6.70
2018-01-02T15:13:19.684Z,6.70
2018-01-02T15:15:47.246Z,6.60
2018-01-02T15:18:14.835Z,6.50
2018-01-02T15:20:42.435Z,6.50
2018-01-02T15:23:10.798Z,6.50
2018-01-02T15:25:39.204Z,6.40
2018-01-02T15:28:06.751Z,6.40
2018-01-02T15:30:34.320Z,6.50
2018-01-02T15:33:01.985Z,6.40
2018-01-02T15:35:29.550Z,8.50
2018-01-02T15:37:57.126Z,6.30
2018-01-02T15:40:24.727Z,6.30
2018-01-02T15:42:53.204Z,6.30
2018-01-02T15:45:21.572Z,6.20
2018-01-02T15:47:49.183Z,6.10
2018-01-02T15:50:16.789Z,6.10
2018-01-02T15:52:44.354Z,6.10
2018-01-02T15:55:12.775Z,6.00
2018-01-02T15:57:40.361Z,6.00
2018-01-02T16:00:09.330Z,6.10
2018-01-02T16:02:36.962Z,6.00
2018-01-02T16:05:05.283Z,6.00
2018-01-02T16:07:32.878Z,6.00
2018-01-02T16:10:00.430Z,6.00
2018-01-02T16:12:28.855Z,5.90
2018-01-02T16:14:56.516Z,5.90
2018-01-02T16:17:24.176Z,5.90
2018-01-02T16:19:51.804Z,5.90
2018-01-02T16:22:20.130Z,5.80
2018-01-02T16:24:47.690Z,5.80
2018-01-02T16:27:15.278Z,5.80
2018-01-02T16:29:42.884Z,5.80
2018-01-02T16:32:10.549Z,5.70
2018-01-02T16:34:38.167Z,5.70
2018-01-02T16:37:06.546Z,5.70
2018-01-02T16:39:34.964Z,5.70
2018-01-02T16:42:02.559Z,5.70
2018-01-02T16:44:30.138Z,5.80
2018-01-02T16:46:57.741Z,5.80
2018-01-02T16:49:25.331Z,5.80
2018-01-02T16:51:52.882Z,5.70
2018-01-02T16:54:20.497Z,5.80
2018-01-02T16:56:48.831Z,5.80
2018-01-02T16:59:16.406Z,5.80
2018-01-02T17:01:44.003Z,5.80
2018-01-02T17:04:11.775Z,5.80
2018-01-02T17:06:39.435Z,5.70
2018-01-02T17:09:06.995Z,5.70
2018-01-02T17:11:34.672Z,5.70
2018-01-02T17:14:02.315Z,5.70
2018-01-02T17:16:29.898Z,5.70
2018-01-02T17:18:57.533Z,5.70
2018-01-02T17:21:25.191Z,5.70
2018-01-02T17:23:53.164Z,5.80
2018-01-02T17:26:21.233Z,5.80
2018-01-02T17:28:49.200Z,5.80
2018-01-02T17:31:17.270Z,5.70
2018-01-02T17:33:46.057Z,5.70
2018-01-02T17:36:14.127Z,5.70
2018-01-02T17:38:42.097Z,5.70
2018-01-02T17:41:10.166Z,5.70
2018-01-02T17:43:38.236Z,5.60
2018-01-02T17:46:06.210Z,5.60
2018-01-02T17:48:34.275Z,5.60
2018-01-02T17:51:02.141Z,5.60
2018-01-02T17:53:30.005Z,5.60
2018-01-02T17:55:58.265Z,5.50
2018-01-02T17:58:26.144Z,5.50
2018-01-02T18:00:53.916Z,5.50
2018-01-02T18:03:21.684Z,5.50
2018-01-02T18:05:49.404Z,5.60
2018-01-02T18:08:17.204Z,5.50
2018-01-02T18:10:44.896Z,5.50
2018-01-02T18:13:12.468Z,5.40
2018-01-02T18:15:40.054Z,5.40
2018-01-02T18:18:08.375Z,5.40
2018-01-02T18:20:36.013Z,5.40
2018-01-02T18:23:03.587Z,5.30
2018-01-02T18:25:31.149Z,5.30
2018-01-02T18:27:58.754Z,5.30
2018-01-02T18:30:27.088Z,5.40
2018-01-02T18:32:54.724Z,5.40
2018-01-02T18:35:22.295Z,5.30
2018-01-02T18:37:49.895Z,5.40
2018-01-02T18:40:17.502Z,5.40
2018-01-02T18:42:45.166Z,5.40
2018-01-02T18:45:12.780Z,5.40
2018-01-02T18:47:40.341Z,5.40
2018-01-02T18:50:08.758Z,5.40
2018-01-02T18:52:36.291Z,5.40
2018-01-02T18:55:04.674Z,5.50
2018-01-02T18:57:32.358Z,5.50
2018-01-02T18:59:59.954Z,5.50
2018-01-02T19:02:27.676Z,5.50
2018-01-02T19:04:55.336Z,5.50
2018-01-02T19:07:22.996Z,5.60
2018-01-02T19:09:50.598Z,5.60
2018-01-02T19:12:18.207Z,5.60
2018-01-02T19:14:45.784Z,5.70
2018-01-02T19:17:13.401Z,5.70
2018-01-02T19:19:41.890Z,5.70
2018-01-02T19:22:09.574Z,5.70
2018-01-02T19:24:37.286Z,5.70
2018-01-02T19:27:04.846Z,5.70
2018-01-02T19:29:32.487Z,5.70
2018-01-02T19:32:00.084Z,5.70
2018-01-02T19:34:28.398Z,5.70
2018-01-02T19:36:56.020Z,5.70
2018-01-02T19:39:24.431Z,5.70
2018-01-02T19:41:52.047Z,5.70
2018-01-02T19:44:20.537Z,5.70
2018-01-02T19:46:48.907Z,5.70
2018-01-02T19:49:17.401Z,5.80
2018-01-02T19:51:45.008Z,5.70
2018-01-02T19:54:12.630Z,5.80
2018-01-02T19:56:40.293Z,5.80
2018-01-02T19:59:08.011Z,5.80
2018-01-02T20:01:35.678Z,5.80
2018-01-02T20:04:03.325Z,5.80
2018-01-02T20:06:31.895Z,5.90
2018-01-02T20:08:59.736Z,5.90
2018-01-02T20:11:27.604Z,5.90
2018-01-02T20:13:55.286Z,5.90
2018-01-02T20:16:22.961Z,6.00
2018-01-02T20:18:50.683Z,6.00
2018-01-02T20:21:18.469Z,5.90
2018-01-02T20:23:46.309Z,5.90
2018-01-02T20:26:14.184Z,5.90
2018-01-02T20:28:41.939Z,5.80
2018-01-02T20:31:09.609Z,5.80
2018-01-02T20:33:37.369Z,5.80
2018-01-02T20:36:04.933Z,5.80
2018-01-02T20:38:32.580Z,5.70
2018-01-02T20:41:00.228Z,5.70
2018-01-02T20:43:27.779Z,5.70
2018-01-02T20:45:55.389Z,5.70
2018-01-02T20:48:23.121Z,5.60
2018-01-02T20:50:50.754Z,5.60
2018-01-02T20:53:19.115Z,5.70
2018-01-02T20:55:46.738Z,5.70
2018-01-02T20:58:14.327Z,5.70
2018-01-02T21:00:41.890Z,5.70
2018-01-02T21:03:09.595Z,5.70
2018-01-02T21:05:37.257Z,5.70
2018-01-02T21:08:04.847Z,5.70
2018-01-02T21:10:32.434Z,5.80
2018-01-02T21:13:00.103Z,5.80
2018-01-02T21:15:28.513Z,5.90
2018-01-02T21:17:56.075Z,5.90
2018-01-02T21:20:23.723Z,5.90
2018-01-02T21:22:51.304Z,5.90
2018-01-02T21:25:18.879Z,5.80
2018-01-02T21:27:46.469Z,5.90
2018-01-02T21:30:14.883Z,6.00
2018-01-02T21:32:42.478Z,6.00
2018-01-02T21:35:10.114Z,6.00
2018-01-02T21:37:37.718Z,6.10
2018-01-02T21:40:05.280Z,6.20
2018-01-02T21:42:32.984Z,6.20
2018-01-02T21:45:00.646Z,6.30
2018-01-02T21:47:28.214Z,6.30
2018-01-02T21:49:55.784Z,6.40
2018-01-02T21:52:23.431Z,6.40
2018-01-02T21:54:50.983Z,6.50
2018-01-02T21:57:18.567Z,6.50
2018-01-02T21:59:46.240Z,6.50
2018-01-02T22:02:13.847Z,6.50
2018-01-02T22:04:41.429Z,6.60
2018-01-02T22:07:09.068Z,6.50
2018-01-02T22:09:36.634Z,6.50
2018-01-02T22:12:04.213Z,6.60
2018-01-02T22:14:31.812Z,6.60
2018-01-02T22:16:59.412Z,6.60
2018-01-02T22:19:27.011Z,6.60
2018-01-02T22:21:54.622Z,6.60
2018-01-02T22:24:22.355Z,6.60
2018-01-02T22:26:50.696Z,6.60
2018-01-02T22:29:18.314Z,6.60
2018-01-02T22:31:45.906Z,6.60
2018-01-02T22:34:13.480Z,6.60
2018-01-02T22:36:41.170Z,6.60
2018-01-02T22:39:08.734Z,6.60
2018-01-02T22:41:37.086Z,6.60
2018-01-02T22:44:04.769Z,6.60
2018-01-02T22:46:32.370Z,6.60
2018-01-02T22:48:59.971Z,6.50
2018-01-02T22:51:27.537Z,6.50
2018-01-02T22:53:56.795Z,6.40
2018-01-02T22:56:24.450Z,6.40
2018-01-02T22:58:52.096Z,6.40
2018-01-02T23:01:19.658Z,6.40
2018-01-02T23:03:47.234Z,6.40
2018-01-02T23:06:14.834Z,6.30
2018-01-02T23:08:42.439Z,6.20
2018-01-02T23:11:10.016Z,6.30
2018-01-02T23:13:37.636Z,6.30
2018-01-02T23:16:05.217Z,6.30
2018-01-02T23:18:32.786Z,6.20
2018-01-02T23:21:00.433Z,6.20
2018-01-02T23:23:28.018Z,6.20
2018-01-02T23:25:55.609Z,6.30
2018-01-02T23:28:23.174Z,6.20
2018-01-02T23:30:51.592Z,6.20
2018-01-02T23:33:19.154Z,6.20
2018-01-02T23:35:46.774Z,6.10
2018-01-02T23:38:15.131Z,6.10
2018-01-02T23:40:42.707Z,6.10
2018-01-02T23:43:11.058Z,6.10
2018-01-02T23:45:38.643Z,6.10
2018-01-02T23:48:06.982Z,6.20
2018-01-02T23:50:34.679Z,6.20
2018-01-02T23:53:03.067Z,4.70
2018-01-02T23:55:31.422Z,6.20
2018-01-02T23:57:58.974Z,6.20
